createdAt,value
2023-02-03T00:02:03.955Z,97.80
2023-02-03T00:04:45.574Z,98.30
2023-02-03T00:07:40.483Z,95.00
2023-02-03T00:10:17.053Z,96.10
2023-02-03T00:12:55.629Z,95.80
2023-02-03T00:15:44.481Z,94.60
2023-02-03T00:18:25.155Z,95.60
2023-02-03T00:21:03.584Z,96.60
2023-02-03T00:23:42.092Z,97.60
2023-02-03T00:26:21.060Z,96.50
2023-02-03T00:29:49.109Z,95.30
2023-02-03T00:32:37.094Z,96.30
2023-02-03T00:35:32.254Z,95.70
2023-02-03T00:38:25.299Z,96.60
2023-02-03T00:41:14.464Z,95.60
2023-02-03T00:43:57.486Z,98.30
2023-02-03T00:46:57.623Z,96.30
2023-02-03T00:49:38.809Z,95.60
2023-02-03T00:52:19.123Z,96.70
2023-02-03T00:57:42.314Z,97.80
2023-02-03T01:01:23.170Z,97.60
2023-02-03T01:03:13.486Z,94.90
2023-02-03T01:06:20.021Z,96.30
2023-02-03T01:09:38.751Z,94.40
2023-02-03T01:12:15.125Z,95.20
2023-02-03T01:17:40.532Z,97.10
2023-02-03T01:20:23.314Z,97.30
2023-02-03T01:23:08.325Z,95.10
2023-02-03T01:25:48.630Z,95.40
2023-02-03T01:28:22.540Z,97.60
2023-02-03T01:31:04.041Z,97.10
2023-02-03T01:33:51.996Z,94.80
2023-02-03T01:36:42.037Z,95.90
2023-02-03T01:39:26.692Z,94.40
2023-02-03T01:42:17.202Z,95.20
2023-02-03T01:44:56.320Z,95.60
2023-02-03T01:47:51.231Z,94.20
2023-02-03T01:51:03.197Z,93.40
2023-02-03T01:53:37.641Z,97.70
2023-02-03T01:56:21.278Z,94.60
2023-02-03T01:59:21.668Z,96.60
2023-02-03T02:02:00.745Z,93.90
2023-02-03T02:05:08.953Z,94.70
2023-02-03T02:07:55.582Z,94.60
2023-02-03T02:10:26.197Z,95.10
2023-02-03T02:12:59.889Z,94.50
2023-02-03T02:15:43.710Z,95.10
2023-02-03T02:18:52.137Z,93.90
2023-02-03T02:21:55.348Z,93.90
2023-02-03T02:25:07.266Z,93.40
2023-02-03T02:28:05.265Z,93.50
2023-02-03T02:31:13.177Z,94.00
2023-02-03T02:34:27.473Z,93.00
2023-02-03T02:37:34.304Z,93.90
2023-02-03T02:40:24.414Z,93.70
2023-02-03T02:43:30.105Z,93.10
2023-02-03T02:46:24.995Z,94.00
2023-02-03T02:49:21.437Z,94.50
2023-02-03T02:51:50.326Z,93.80
2023-02-03T02:54:24.534Z,94.50
2023-02-03T02:57:04.535Z,94.80
2023-02-03T02:59:32.821Z,95.40
2023-02-03T03:02:06.184Z,95.80
2023-02-03T03:04:43.563Z,96.60
2023-02-03T03:07:21.205Z,94.70
2023-02-03T03:10:02.914Z,95.50
2023-02-03T03:12:49.320Z,94.60
2023-02-03T03:15:58.480Z,94.40
2023-02-03T03:18:59.511Z,94.70
2023-02-03T03:21:42.886Z,93.60
2023-02-03T03:24:18.099Z,94.20
2023-02-03T03:27:11.456Z,94.40
2023-02-03T03:29:58.272Z,94.60
2023-02-03T03:32:35.476Z,94.20
2023-02-03T03:35:32.203Z,94.50
2023-02-03T03:38:33.139Z,95.30
2023-02-03T03:41:46.714Z,95.20
2023-02-03T03:44:26.625Z,93.90
2023-02-03T03:47:13.865Z,94.30
2023-02-03T03:49:48.819Z,93.40
2023-02-03T03:52:26.613Z,94.20
2023-02-03T03:55:25.489Z,94.40
2023-02-03T03:58:26.553Z,94.00
2023-02-03T04:01:04.480Z,95.00
2023-02-03T04:03:59.303Z,93.90
2023-02-03T04:06:44.288Z,94.30
2023-02-03T04:09:19.550Z,96.90
2023-02-03T04:12:02.447Z,95.00
2023-02-03T04:14:37.469Z,95.10
2023-02-03T04:17:07.807Z,94.50
2023-02-03T04:19:36.875Z,93.90
2023-02-03T04:22:15.962Z,95.80
2023-02-03T04:24:46.879Z,95.40
2023-02-03T04:27:42.717Z,97.30
2023-02-03T04:30:17.109Z,97.50
2023-02-03T04:32:56.872Z,93.20
2023-02-03T04:35:33.551Z,94.20
2023-02-03T04:38:09.519Z,94.40
2023-02-03T04:40:52.099Z,96.20
2023-02-03T04:43:32.876Z,96.40
2023-02-03T04:46:03.151Z,94.00
2023-02-03T04:48:40.267Z,95.70
2023-02-03T04:51:11.457Z,96.00
2023-02-03T04:53:42.045Z,94.10
2023-02-03T04:56:15.592Z,96.10
2023-02-03T04:58:58.962Z,95.80
2023-02-03T05:01:30.120Z,94.30
2023-02-03T05:04:02.277Z,95.80
2023-02-03T05:06:59.165Z,94.40
2023-02-03T05:09:43.714Z,94.40
2023-02-03T05:12:15.163Z,94.10
2023-02-03T05:15:05.774Z,95.90
2023-02-03T05:17:40.014Z,93.90
2023-02-03T05:20:21.128Z,94.20
2023-02-03T05:23:01.929Z,94.60
2023-02-03T05:25:51.603Z,96.30
2023-02-03T05:28:48.570Z,96.00
2023-02-03T05:31:30.551Z,94.70
2023-02-03T05:34:09.792Z,95.00
2023-02-03T05:36:44.265Z,93.20
2023-02-03T05:39:30.295Z,95.00
2023-02-03T05:42:08.325Z,94.30
2023-02-03T05:44:43.244Z,93.00
2023-02-03T05:47:21.733Z,94.20
2023-02-03T05:49:58.146Z,95.80
2023-02-03T05:55:12.454Z,95.10
2023-02-03T05:57:42.374Z,96.30
2023-02-03T06:00:24.639Z,96.20
2023-02-03T06:03:16.476Z,93.40
2023-02-03T06:05:46.113Z,92.10
2023-02-03T06:08:40.942Z,95.20
2023-02-03T06:11:21.904Z,94.50
2023-02-03T06:13:58.099Z,93.30
2023-02-03T06:16:45.474Z,95.00
2023-02-03T06:19:18.925Z,92.60
2023-02-03T06:22:16.280Z,95.50
2023-02-03T06:25:06.487Z,95.80
2023-02-03T06:28:04.969Z,96.40
2023-02-03T06:31:07.710Z,95.90
2023-02-03T06:34:04.169Z,95.90
2023-02-03T06:36:40.436Z,94.10
2023-02-03T06:39:46.792Z,93.30
2023-02-03T06:42:39.229Z,94.90
2023-02-03T06:45:14.417Z,94.10
2023-02-03T06:47:49.895Z,94.10
2023-02-03T06:50:41.100Z,93.80
2023-02-03T06:53:14.745Z,94.20
2023-02-03T06:55:56.513Z,95.20
2023-02-03T06:58:39.731Z,94.40
2023-02-03T07:01:10.713Z,95.00
2023-02-03T07:03:48.081Z,95.30
2023-02-03T07:06:22.229Z,95.30
2023-02-03T07:09:14.223Z,94.30
2023-02-03T07:11:44.793Z,94.40
2023-02-03T07:14:18.971Z,93.50
2023-02-03T07:16:58.630Z,94.00
2023-02-03T07:19:40.824Z,95.40
2023-02-03T07:22:14.713Z,93.80
2023-02-03T07:24:53.826Z,94.90
2023-02-03T07:27:28.155Z,94.00
2023-02-03T07:30:13.015Z,92.70
2023-02-03T07:32:57.600Z,93.20
2023-02-03T07:35:57.047Z,93.90
2023-02-03T07:38:34.224Z,93.10
2023-02-03T07:41:26.541Z,94.10
2023-02-03T07:43:54.411Z,96.00
2023-02-03T07:46:26.488Z,94.90
2023-02-03T07:49:04.685Z,93.80
2023-02-03T07:51:32.515Z,91.60
2023-02-03T07:54:03.196Z,94.90
2023-02-03T07:56:32.716Z,94.00
2023-02-03T07:59:00.797Z,94.30
2023-02-03T08:01:31.543Z,95.30
2023-02-03T08:04:02.054Z,92.10
2023-02-03T08:06:30.707Z,94.20
2023-02-03T08:08:58.403Z,93.40
2023-02-03T08:11:26.598Z,95.00
2023-02-03T08:13:54.624Z,94.30
2023-02-03T08:16:22.398Z,94.20
2023-02-03T08:18:50.139Z,93.80
2023-02-03T08:21:17.772Z,94.80
2023-02-03T08:23:45.302Z,94.30
2023-02-03T08:26:12.847Z,93.90
2023-02-03T08:28:40.785Z,92.70
2023-02-03T08:31:14.730Z,94.40
2023-02-03T08:33:42.612Z,92.90
2023-02-03T08:36:11.480Z,95.40
2023-02-03T08:38:40.559Z,94.60
2023-02-03T08:41:20.022Z,93.20
2023-02-03T08:43:47.873Z,93.70
2023-02-03T08:46:15.781Z,94.00
2023-02-03T08:48:45.971Z,94.70
2023-02-03T08:51:16.099Z,94.60
2023-02-03T08:53:43.692Z,93.10
2023-02-03T08:56:13.202Z,93.30
2023-02-03T08:58:45.741Z,92.60
2023-02-03T09:01:15.915Z,95.00
2023-02-03T09:03:43.708Z,92.90
2023-02-03T09:06:16.724Z,93.20
2023-02-03T09:08:46.164Z,92.30
2023-02-03T09:11:18.258Z,93.10
2023-02-03T09:13:46.193Z,92.90
2023-02-03T09:16:17.520Z,93.00
2023-02-03T09:18:49.293Z,91.90
2023-02-03T09:21:32.100Z,92.10
2023-02-03T09:24:03.260Z,93.50
2023-02-03T09:26:31.040Z,92.10
2023-02-03T09:28:58.749Z,93.10
2023-02-03T09:31:26.378Z,93.50
2023-02-03T09:33:54.048Z,91.90
2023-02-03T09:36:21.791Z,93.70
2023-02-03T09:38:49.341Z,93.60
2023-02-03T09:41:35.974Z,93.60
2023-02-03T09:44:13.350Z,93.20
2023-02-03T09:46:56.517Z,93.50
2023-02-03T09:49:42.799Z,93.00
2023-02-03T09:52:36.027Z,91.60
2023-02-03T09:55:14.079Z,92.10
2023-02-03T09:57:48.851Z,92.20
2023-02-03T10:00:28.279Z,92.30
2023-02-03T10:03:08.979Z,92.10
2023-02-03T10:06:18.891Z,91.40
2023-02-03T10:09:16.473Z,91.60
2023-02-03T10:11:59.432Z,93.70
2023-02-03T10:14:45.578Z,90.80
2023-02-03T10:17:51.784Z,91.20
2023-02-03T10:20:38.438Z,92.90
2023-02-03T10:23:35.644Z,92.30
2023-02-03T10:26:07.919Z,91.60
2023-02-03T10:29:28.243Z,91.50
2023-02-03T10:32:10.079Z,91.30
2023-02-03T10:34:46.785Z,91.60
2023-02-03T10:37:47.272Z,92.00
2023-02-03T10:40:30.712Z,91.50
2023-02-03T10:43:21.136Z,92.50
2023-02-03T10:45:51.904Z,91.60
2023-02-03T10:48:37.731Z,92.00
2023-02-03T10:51:25.856Z,90.40
2023-02-03T10:54:00.081Z,91.60
2023-02-03T10:56:36.237Z,91.80
2023-02-03T10:59:06.823Z,92.20
2023-02-03T11:01:44.818Z,91.30
2023-02-03T11:04:27.910Z,91.30
2023-02-03T11:07:02.121Z,91.60
2023-02-03T11:09:38.695Z,91.70
2023-02-03T11:12:20.510Z,92.00
2023-02-03T11:14:50.520Z,91.50
2023-02-03T11:17:37.388Z,91.50
2023-02-03T11:20:15.561Z,92.40
2023-02-03T11:22:55.685Z,91.80
2023-02-03T11:25:32.714Z,92.70
2023-02-03T11:28:10.559Z,91.40
2023-02-03T11:30:43.241Z,92.00
2023-02-03T11:36:36.343Z,90.40
2023-02-03T11:39:18.229Z,92.60
2023-02-03T11:41:54.891Z,91.10
2023-02-03T11:45:15.569Z,91.50
2023-02-03T11:49:00.506Z,93.20
2023-02-03T11:51:58.636Z,90.10
2023-02-03T11:59:00.280Z,90.20
2023-02-03T12:01:58.219Z,90.30
2023-02-03T12:05:12.290Z,90.30
2023-02-03T12:08:17.078Z,90.30
2023-02-03T12:11:09.721Z,90.40
2023-02-03T12:14:07.490Z,89.40
2023-02-03T12:16:56.378Z,90.00
2023-02-03T12:20:04.508Z,90.60
2023-02-03T12:22:42.159Z,90.20
2023-02-03T12:25:35.017Z,91.10
2023-02-03T12:28:35.332Z,90.10
2023-02-03T12:31:28.400Z,90.00
2023-02-03T12:34:17.817Z,90.00
2023-02-03T12:37:56.416Z,90.20
2023-02-03T12:40:37.198Z,90.20
2023-02-03T12:43:12.525Z,93.00
2023-02-03T12:45:41.831Z,90.00
2023-02-03T12:48:33.033Z,90.80
2023-02-03T12:51:16.921Z,91.10
2023-02-03T12:57:47.195Z,91.90
2023-02-03T13:00:55.296Z,90.70
2023-02-03T13:03:55.938Z,90.80
2023-02-03T13:06:51.611Z,91.10
2023-02-03T13:09:50.668Z,91.10
2023-02-03T13:12:59.146Z,90.40
2023-02-03T13:15:32.156Z,91.20
2023-02-03T13:18:27.856Z,92.30
2023-02-03T13:21:19.131Z,90.70
2023-02-03T13:23:59.646Z,91.90
2023-02-03T13:27:09.130Z,92.50
2023-02-03T13:30:00.650Z,91.00
2023-02-03T13:32:31.231Z,91.00
2023-02-03T13:35:33.316Z,93.60
2023-02-03T13:38:40.382Z,91.50
2023-02-03T13:41:37.287Z,91.50
2023-02-03T13:44:15.387Z,91.60
2023-02-03T13:47:09.963Z,92.90
2023-02-03T13:49:57.069Z,93.30
2023-02-03T13:56:36.256Z,91.70
2023-02-03T13:59:22.797Z,92.50
2023-02-03T14:02:39.482Z,91.50
2023-02-03T14:06:04.782Z,91.60
2023-02-03T14:09:26.515Z,92.00
2023-02-03T14:12:23.500Z,91.60
2023-02-03T14:18:52.872Z,91.70
2023-02-03T14:21:45.005Z,91.70
2023-02-03T14:24:56.107Z,92.30
2023-02-03T14:28:33.904Z,93.20
2023-02-03T14:31:17.966Z,92.00
2023-02-03T14:34:05.979Z,94.40
2023-02-03T14:37:07.620Z,91.00
2023-02-03T14:40:05.172Z,92.90
2023-02-03T14:43:15.984Z,91.20
2023-02-03T14:48:57.484Z,90.90
2023-02-03T15:01:50.906Z,91.70
2023-02-03T15:04:49.523Z,91.80
2023-02-03T15:07:47.329Z,91.40
2023-02-03T15:11:00.133Z,91.90
2023-02-03T15:13:48.897Z,92.80
2023-02-03T15:16:35.494Z,92.80
2023-02-03T15:19:28.259Z,93.10
2023-02-03T15:22:20.707Z,92.30
2023-02-03T15:25:01.816Z,91.60
2023-02-03T15:27:48.247Z,93.50
2023-02-03T15:30:40.723Z,94.70
2023-02-03T15:33:59.337Z,91.20
2023-02-03T15:36:48.914Z,93.00
2023-02-03T15:40:04.840Z,91.60
2023-02-03T15:43:06.722Z,91.50
2023-02-03T15:46:19.282Z,94.80
2023-02-03T15:49:20.001Z,93.10
2023-02-03T15:52:31.845Z,91.80
2023-02-03T15:54:57.470Z,91.50
2023-02-03T15:57:41.719Z,93.30
2023-02-03T16:00:58.121Z,94.10
2023-02-03T16:03:45.642Z,91.60
2023-02-03T16:07:27.982Z,94.20
2023-02-03T16:10:17.967Z,91.60
2023-02-03T16:13:16.869Z,93.90
2023-02-03T16:16:10.219Z,91.80
2023-02-03T16:18:54.061Z,93.10
2023-02-03T16:22:13.033Z,92.90
2023-02-03T16:25:05.192Z,91.90
2023-02-03T16:28:18.463Z,92.20
2023-02-03T16:31:46.098Z,92.80
2023-02-03T16:34:38.161Z,91.80
2023-02-03T16:41:13.109Z,91.80
2023-02-03T16:44:07.245Z,91.80
2023-02-03T16:47:10.704Z,93.00
2023-02-03T16:50:00.711Z,92.70
2023-02-03T16:52:47.622Z,93.70
2023-02-03T16:58:20.938Z,93.20
2023-02-03T17:01:09.256Z,92.60
2023-02-03T17:03:52.101Z,92.70
2023-02-03T17:06:38.098Z,93.40
2023-02-03T17:09:44.050Z,92.10
2023-02-03T17:12:17.404Z,94.70
2023-02-03T17:14:47.884Z,94.40
2023-02-03T17:17:43.967Z,94.90
2023-02-03T17:23:17.615Z,92.70
2023-02-03T17:26:09.932Z,93.30
2023-02-03T17:29:52.951Z,93.20
2023-02-03T17:35:48.107Z,92.10
2023-02-03T18:13:11.685Z,91.20
2023-02-03T18:16:02.855Z,91.10
2023-02-03T18:18:38.359Z,93.90
2023-02-03T18:21:17.087Z,92.50
2023-02-03T18:25:02.808Z,92.90
2023-02-03T18:29:23.335Z,91.90
2023-02-03T18:55:48.026Z,91.90
2023-02-03T18:59:13.795Z,91.80
2023-02-03T19:01:58.903Z,91.90
2023-02-03T19:06:01.557Z,91.50
2023-02-03T20:46:01.263Z,92.20
2023-02-03T21:08:30.783Z,91.90
2023-02-03T21:11:33.906Z,92.80
2023-02-03T21:14:06.444Z,91.90
2023-02-03T21:16:38.897Z,93.70
2023-02-03T21:19:17.260Z,92.70
2023-02-03T21:21:46.929Z,91.50
2023-02-03T21:24:34.624Z,91.60
2023-02-03T21:27:02.639Z,91.30
2023-02-03T21:29:33.798Z,93.40
2023-02-03T21:32:01.979Z,91.80
2023-02-03T21:34:37.772Z,92.20
2023-02-03T21:37:21.455Z,92.30
2023-02-03T21:39:49.568Z,91.20
2023-02-03T21:42:47.094Z,91.90
2023-02-03T21:45:25.698Z,91.20
2023-02-03T21:48:01.659Z,92.30
2023-02-03T21:50:34.022Z,92.20
2023-02-03T21:53:29.130Z,92.10
2023-02-03T21:55:59.740Z,91.90
2023-02-03T21:58:49.896Z,91.60
2023-02-03T22:04:35.082Z,92.00
2023-02-03T22:07:15.111Z,91.40
2023-02-03T22:09:47.126Z,91.70
2023-02-03T22:12:21.022Z,92.10
2023-02-03T22:14:53.404Z,93.20
2023-02-03T22:17:29.592Z,91.80
2023-02-03T22:19:59.641Z,91.60
2023-02-03T22:22:28.539Z,91.70
2023-02-03T22:24:58.941Z,93.00
2023-02-03T22:27:27.415Z,92.00
2023-02-03T22:29:56.865Z,92.60
2023-02-03T22:32:26.178Z,91.70
2023-02-03T22:35:01.242Z,93.10
2023-02-03T22:37:29.217Z,93.50
2023-02-03T22:40:00.681Z,93.20
2023-02-03T22:42:29.393Z,93.20
2023-02-03T22:44:57.321Z,92.60
2023-02-03T22:47:26.503Z,94.10
2023-02-03T22:49:55.415Z,94.30
2023-02-03T22:52:23.227Z,95.20
2023-02-03T22:54:51.166Z,92.90
2023-02-03T22:57:19.177Z,94.30
2023-02-03T22:59:47.082Z,94.40
2023-02-03T23:02:19.039Z,94.10
2023-02-03T23:04:51.016Z,94.00
2023-02-03T23:07:20.936Z,92.80
2023-02-03T23:09:51.790Z,94.30
2023-02-03T23:12:19.990Z,93.00
2023-02-03T23:14:50.662Z,93.20
2023-02-03T23:17:18.632Z,92.30
2023-02-03T23:19:54.032Z,92.50
2023-02-03T23:22:23.505Z,94.10
2023-02-03T23:24:54.069Z,94.20
2023-02-03T23:27:21.876Z,93.40
2023-02-03T23:29:49.663Z,94.10
2023-02-03T23:32:22.539Z,93.20
2023-02-03T23:35:08.836Z,94.30
2023-02-03T23:37:37.028Z,91.50
2023-02-03T23:40:05.497Z,93.20
2023-02-03T23:42:33.879Z,91.10
2023-02-03T23:45:06.997Z,93.50
2023-02-03T23:47:37.222Z,92.30
2023-02-03T23:50:05.650Z,93.40
2023-02-03T23:52:35.868Z,91.30
2023-02-03T23:55:23.960Z,93.80
2023-02-03T23:57:51.958Z,91.20
